createdAt,value
2022-11-06T00:00:34.274Z,10.60
2022-11-06T00:03:20.992Z,10.70
2022-11-06T00:06:06.485Z,10.60
2022-11-06T00:08:36.541Z,10.60
2022-11-06T00:11:11.188Z,10.60
2022-11-06T00:13:41.513Z,10.50
2022-11-06T00:16:11.707Z,10.50
2022-11-06T00:18:41.076Z,10.50
2022-11-06T00:21:10.133Z,10.50
2022-11-06T00:23:38.157Z,10.50
2022-11-06T00:26:08.331Z,10.50
2022-11-06T00:28:36.586Z,10.50
2022-11-06T00:31:07.660Z,10.50
2022-11-06T00:33:36.291Z,10.50
2022-11-06T00:36:05.142Z,10.50
2022-11-06T00:38:33.451Z,10.50
2022-11-06T00:41:04.366Z,10.50
2022-11-06T00:43:32.995Z,10.50
2022-11-06T00:46:02.964Z,10.40
2022-11-06T00:48:32.471Z,10.40
2022-11-06T00:51:03.548Z,10.50
2022-11-06T00:53:31.666Z,10.40
2022-11-06T00:56:05.970Z,10.50
2022-11-06T00:58:34.223Z,10.40
2022-11-06T01:01:08.496Z,10.50
2022-11-06T01:03:38.290Z,10.50
2022-11-06T01:06:08.372Z,10.50
2022-11-06T01:08:36.620Z,10.50
2022-11-06T01:11:09.925Z,10.50
2022-11-06T01:13:39.639Z,10.50
2022-11-06T01:16:09.403Z,10.50
2022-11-06T01:18:40.313Z,10.40
2022-11-06T01:21:09.818Z,10.40
2022-11-06T01:23:38.010Z,10.50
2022-11-06T01:26:07.883Z,10.50
2022-11-06T01:28:36.542Z,10.50
2022-11-06T01:31:06.125Z,10.50
2022-11-06T01:33:34.288Z,10.50
2022-11-06T01:36:03.642Z,10.50
2022-11-06T01:38:31.678Z,10.60
2022-11-06T01:40:59.690Z,10.50
2022-11-06T01:43:46.638Z,10.50
2022-11-06T01:46:16.063Z,10.50
2022-11-06T01:48:49.102Z,10.50
2022-11-06T01:51:19.073Z,10.50
2022-11-06T01:53:47.389Z,10.50
2022-11-06T01:56:16.540Z,10.50
2022-11-06T01:58:47.920Z,10.50
2022-11-06T02:01:17.136Z,10.50
2022-11-06T02:03:52.747Z,10.60
2022-11-06T02:06:22.913Z,10.60
2022-11-06T02:08:50.902Z,10.60
2022-11-06T02:11:19.074Z,10.60
2022-11-06T02:13:58.858Z,10.50
2022-11-06T02:16:39.954Z,10.60
2022-11-06T02:19:31.460Z,10.60
2022-11-06T02:22:19.331Z,10.60
2022-11-06T02:25:07.447Z,10.60
2022-11-06T02:27:37.255Z,10.60
2022-11-06T02:30:08.413Z,10.60
2022-11-06T02:32:40.993Z,10.60
2022-11-06T02:35:19.206Z,10.60
2022-11-06T02:37:50.543Z,10.60
2022-11-06T02:40:19.882Z,10.60
2022-11-06T02:42:54.350Z,10.60
2022-11-06T02:45:24.506Z,10.60
2022-11-06T02:47:56.034Z,10.60
2022-11-06T02:50:27.985Z,10.60
2022-11-06T02:52:59.770Z,10.60
2022-11-06T02:55:30.508Z,10.60
2022-11-06T02:58:07.707Z,10.60
2022-11-06T03:00:37.152Z,10.60
2022-11-06T03:03:09.574Z,10.60
2022-11-06T03:05:44.417Z,10.60
2022-11-06T03:08:18.838Z,10.60
2022-11-06T03:10:52.019Z,10.60
2022-11-06T03:13:25.295Z,10.60
2022-11-06T03:16:04.987Z,10.50
2022-11-06T03:18:40.209Z,10.50
2022-11-06T03:21:15.134Z,10.50
2022-11-06T03:23:48.585Z,10.50
2022-11-06T03:26:20.584Z,10.50
2022-11-06T03:28:54.357Z,10.50
2022-11-06T03:31:30.445Z,10.50
2022-11-06T03:34:03.024Z,10.50
2022-11-06T03:36:35.305Z,10.40
2022-11-06T03:39:07.429Z,10.40
2022-11-06T03:41:43.061Z,10.40
2022-11-06T03:44:16.350Z,10.40
2022-11-06T03:46:48.479Z,10.40
2022-11-06T03:49:23.610Z,10.30
2022-11-06T03:51:58.038Z,10.30
2022-11-06T03:54:30.536Z,10.30
2022-11-06T03:57:01.710Z,10.30
2022-11-06T03:59:35.167Z,10.30
2022-11-06T04:02:04.142Z,10.30
2022-11-06T04:04:36.559Z,10.40
2022-11-06T04:07:09.344Z,10.30
2022-11-06T04:09:59.029Z,10.30
2022-11-06T04:13:00.628Z,10.20
2022-11-06T04:15:34.503Z,10.20
2022-11-06T04:18:02.590Z,10.20
2022-11-06T04:20:56.386Z,10.20
2022-11-06T04:23:37.687Z,10.20
2022-11-06T04:26:31.776Z,10.30
2022-11-06T04:29:09.172Z,10.30
2022-11-06T04:31:46.398Z,10.30
2022-11-06T04:34:22.568Z,10.20
2022-11-06T04:37:01.336Z,10.30
2022-11-06T04:39:35.692Z,10.30
2022-11-06T04:42:12.614Z,10.30
2022-11-06T04:44:44.870Z,10.30
2022-11-06T04:47:17.952Z,10.30
2022-11-06T04:49:46.853Z,10.20
2022-11-06T04:52:19.207Z,10.20
2022-11-06T04:54:48.079Z,10.20
2022-11-06T04:57:16.307Z,10.20
2022-11-06T04:59:44.419Z,10.20
2022-11-06T05:02:13.996Z,10.20
2022-11-06T05:04:42.133Z,10.20
2022-11-06T05:07:10.738Z,10.20
2022-11-06T05:09:39.068Z,10.30
2022-11-06T05:12:07.497Z,10.30
2022-11-06T05:14:35.494Z,10.30
2022-11-06T05:17:03.637Z,10.30
2022-11-06T05:19:32.968Z,10.30
2022-11-06T05:22:18.497Z,10.20
2022-11-06T05:24:46.478Z,10.20
2022-11-06T05:27:14.427Z,10.10
2022-11-06T05:29:42.927Z,10.10
2022-11-06T05:32:10.925Z,10.10
2022-11-06T05:34:42.346Z,10.00
2022-11-06T05:37:10.260Z,10.00
2022-11-06T05:39:41.862Z,10.00
2022-11-06T05:42:10.314Z,10.00
2022-11-06T05:44:38.788Z,10.00
2022-11-06T05:47:06.766Z,10.00
2022-11-06T05:49:35.079Z,9.90
2022-11-06T05:52:04.584Z,9.90
2022-11-06T05:54:32.526Z,9.90
2022-11-06T05:57:00.610Z,9.90
2022-11-06T05:59:28.667Z,9.80
2022-11-06T06:01:58.532Z,9.80
2022-11-06T06:04:26.724Z,9.80
2022-11-06T06:06:54.693Z,9.80
2022-11-06T06:09:24.027Z,9.80
2022-11-06T06:11:53.221Z,9.80
2022-11-06T06:14:21.592Z,9.80
2022-11-06T06:16:49.707Z,9.80
2022-11-06T06:19:17.766Z,9.80
2022-11-06T06:21:45.861Z,9.70
2022-11-06T06:24:13.921Z,9.80
2022-11-06T06:26:43.647Z,9.70
2022-11-06T06:29:11.720Z,9.80
2022-11-06T06:31:39.760Z,9.80
2022-11-06T06:34:08.759Z,9.80
2022-11-06T06:36:36.746Z,9.80
2022-11-06T06:39:04.931Z,9.90
2022-11-06T06:41:33.319Z,9.90
2022-11-06T06:44:02.660Z,9.90
2022-11-06T06:46:30.590Z,9.90
2022-11-06T06:48:58.757Z,9.90
2022-11-06T06:51:26.744Z,9.90
2022-11-06T06:53:54.703Z,9.90
2022-11-06T06:56:22.878Z,10.00
2022-11-06T06:58:54.074Z,10.00
2022-11-06T07:01:23.890Z,10.00
2022-11-06T07:03:51.962Z,10.00
2022-11-06T07:06:20.471Z,10.10
2022-11-06T07:08:48.742Z,10.10
2022-11-06T07:11:18.167Z,10.10
2022-11-06T07:13:46.182Z,10.20
2022-11-06T07:16:14.351Z,10.20
2022-11-06T07:18:43.706Z,10.20
2022-11-06T07:21:13.719Z,10.30
2022-11-06T07:23:42.089Z,10.30
2022-11-06T07:26:10.082Z,10.30
2022-11-06T07:28:38.019Z,10.30
2022-11-06T07:31:08.243Z,10.30
2022-11-06T07:33:36.906Z,10.30
2022-11-06T07:36:08.023Z,10.40
2022-11-06T07:38:37.089Z,10.40
2022-11-06T07:41:05.963Z,10.40
2022-11-06T07:43:34.371Z,10.40
2022-11-06T07:46:03.613Z,10.50
2022-11-06T07:48:32.486Z,10.50
2022-11-06T07:51:03.065Z,10.50
2022-11-06T07:53:32.600Z,10.50
2022-11-06T07:56:00.962Z,10.50
2022-11-06T07:58:29.415Z,10.60
2022-11-06T08:00:59.214Z,10.60
2022-11-06T08:03:29.987Z,10.60
2022-11-06T08:05:58.429Z,10.60
2022-11-06T08:08:27.023Z,10.70
2022-11-06T08:10:56.380Z,10.70
2022-11-06T08:13:25.977Z,10.70
2022-11-06T08:15:54.115Z,10.80
2022-11-06T08:18:22.072Z,10.80
2022-11-06T08:20:50.077Z,11.00
2022-11-06T08:23:18.257Z,11.10
2022-11-06T08:25:46.336Z,11.20
2022-11-06T08:28:15.866Z,11.20
2022-11-06T08:30:44.119Z,11.20
2022-11-06T08:33:12.437Z,11.30
2022-11-06T08:35:40.493Z,11.30
2022-11-06T08:38:08.590Z,11.40
2022-11-06T08:40:38.770Z,11.40
2022-11-06T08:43:09.137Z,11.50
2022-11-06T08:45:39.676Z,11.50
2022-11-06T08:48:08.787Z,11.50
2022-11-06T08:50:39.051Z,11.50
2022-11-06T08:53:07.638Z,11.50
2022-11-06T08:55:37.035Z,11.60
2022-11-06T08:58:05.968Z,11.60
2022-11-06T09:00:34.227Z,11.60
2022-11-06T09:03:05.736Z,11.60
2022-11-06T09:05:34.183Z,11.60
2022-11-06T09:08:02.129Z,11.60
2022-11-06T09:10:30.249Z,11.50
2022-11-06T09:12:59.593Z,11.60
2022-11-06T09:15:27.738Z,11.60
2022-11-06T09:17:56.275Z,11.70
2022-11-06T09:20:26.987Z,11.80
2022-11-06T09:22:55.553Z,12.00
2022-11-06T09:25:23.646Z,12.10
2022-11-06T09:27:58.739Z,12.10
2022-11-06T09:30:29.468Z,12.30
2022-11-06T09:33:00.493Z,12.40
2022-11-06T09:35:31.683Z,12.60
2022-11-06T09:38:03.366Z,12.70
2022-11-06T09:40:35.448Z,12.70
2022-11-06T09:43:27.318Z,12.70
2022-11-06T09:46:07.446Z,12.60
2022-11-06T09:48:39.594Z,12.60
2022-11-06T09:51:17.939Z,12.60
2022-11-06T09:53:50.629Z,12.60
2022-11-06T09:56:21.844Z,12.60
2022-11-06T09:58:50.619Z,12.60
2022-11-06T10:01:27.055Z,12.60
2022-11-06T10:03:58.577Z,12.60
2022-11-06T10:06:29.786Z,12.70
2022-11-06T10:09:02.460Z,12.70
2022-11-06T10:11:59.441Z,12.70
2022-11-06T10:14:45.989Z,12.70
2022-11-06T10:17:23.420Z,12.80
2022-11-06T10:19:58.102Z,12.80
2022-11-06T10:22:36.289Z,12.80
2022-11-06T10:25:19.404Z,12.80
2022-11-06T10:28:00.209Z,12.90
2022-11-06T10:30:38.795Z,13.00
2022-11-06T10:33:21.395Z,13.10
2022-11-06T10:35:55.161Z,13.10
2022-11-06T10:38:27.130Z,13.20
2022-11-06T10:40:57.135Z,13.20
2022-11-06T10:43:31.859Z,13.20
2022-11-06T10:46:05.658Z,13.10
2022-11-06T10:48:41.544Z,13.20
2022-11-06T10:51:32.297Z,13.20
2022-11-06T10:54:14.660Z,13.20
2022-11-06T10:56:58.775Z,13.20
2022-11-06T10:59:26.938Z,13.20
2022-11-06T11:01:55.562Z,13.30
2022-11-06T11:04:23.586Z,13.30
2022-11-06T11:06:52.224Z,13.40
2022-11-06T11:09:33.592Z,13.40
2022-11-06T11:12:02.669Z,13.40
2022-11-06T11:14:32.546Z,13.50
2022-11-06T11:17:02.420Z,13.60
2022-11-06T11:19:38.767Z,13.60
2022-11-06T11:22:19.687Z,13.60
2022-11-06T11:25:01.476Z,13.70
2022-11-06T11:27:31.006Z,13.60
2022-11-06T11:29:59.358Z,13.70
2022-11-06T11:32:31.126Z,13.80
2022-11-06T11:35:00.735Z,13.80
2022-11-06T11:37:31.319Z,13.90
2022-11-06T11:40:20.815Z,13.90
2022-11-06T11:42:49.434Z,14.00
2022-11-06T11:45:20.701Z,14.00
2022-11-06T11:47:51.430Z,14.00
2022-11-06T11:50:32.183Z,14.10
2022-11-06T11:53:10.264Z,14.10
2022-11-06T11:55:44.388Z,14.10
2022-11-06T11:58:22.476Z,14.10
2022-11-06T12:00:56.762Z,14.10
2022-11-06T12:03:28.595Z,14.00
2022-11-06T12:06:07.509Z,14.00
2022-11-06T12:08:36.591Z,14.00
2022-11-06T12:11:08.501Z,13.90
2022-11-06T12:13:36.577Z,13.90
2022-11-06T12:16:09.208Z,13.80
2022-11-06T12:18:42.350Z,13.80
2022-11-06T12:21:16.629Z,13.80
2022-11-06T12:23:50.079Z,13.80
2022-11-06T12:26:26.993Z,13.80
2022-11-06T12:29:03.626Z,13.90
2022-11-06T12:31:39.943Z,13.90
2022-11-06T12:34:17.432Z,13.90
2022-11-06T12:37:02.076Z,14.00
2022-11-06T12:39:35.710Z,14.00
2022-11-06T12:42:08.176Z,14.10
2022-11-06T12:44:36.537Z,14.00
2022-11-06T12:47:13.822Z,14.00
2022-11-06T12:49:58.098Z,14.00
2022-11-06T12:52:43.230Z,14.00
2022-11-06T12:55:20.453Z,14.00
2022-11-06T12:58:15.047Z,14.00
2022-11-06T13:00:53.164Z,13.90
2022-11-06T13:03:40.101Z,13.90
2022-11-06T13:06:14.910Z,13.90
2022-11-06T13:08:51.822Z,13.90
2022-11-06T13:11:31.580Z,13.90
2022-11-06T13:14:09.609Z,14.00
2022-11-06T13:16:47.727Z,14.00
2022-11-06T13:19:22.218Z,14.00
2022-11-06T13:22:11.304Z,14.00
2022-11-06T13:24:46.519Z,14.10
2022-11-06T13:27:23.774Z,14.20
2022-11-06T13:29:56.502Z,14.30
2022-11-06T13:32:26.869Z,14.20
2022-11-06T13:34:57.246Z,14.10
2022-11-06T13:37:36.640Z,14.10
2022-11-06T13:40:16.372Z,14.10
2022-11-06T13:42:49.533Z,14.00
2022-11-06T13:45:20.320Z,14.00
2022-11-06T13:48:00.463Z,14.00
2022-11-06T13:50:33.993Z,14.00
2022-11-06T13:53:11.358Z,14.00
2022-11-06T13:55:57.890Z,14.00
2022-11-06T13:58:48.798Z,13.90
2022-11-06T14:01:34.537Z,13.90
2022-11-06T14:04:42.770Z,13.90
2022-11-06T14:07:12.755Z,13.90
2022-11-06T14:09:46.492Z,13.80
2022-11-06T14:12:20.304Z,13.80
2022-11-06T14:14:50.029Z,13.70
2022-11-06T14:17:25.165Z,13.70
2022-11-06T14:20:09.603Z,13.60
2022-11-06T14:22:39.574Z,13.60
2022-11-06T14:25:48.320Z,13.60
2022-11-06T14:28:34.006Z,13.60
2022-11-06T14:31:23.829Z,13.50
2022-11-06T14:34:03.896Z,13.50
2022-11-06T14:36:36.320Z,13.50
2022-11-06T14:39:10.223Z,13.40
2022-11-06T14:41:58.117Z,13.40
2022-11-06T14:44:42.882Z,13.40
2022-11-06T14:47:24.277Z,13.30
2022-11-06T14:49:56.421Z,13.30
2022-11-06T14:52:27.707Z,13.30
2022-11-06T14:55:04.843Z,13.30
2022-11-06T14:57:45.902Z,13.20
2022-11-06T15:00:33.276Z,13.10
2022-11-06T15:03:02.428Z,13.10
2022-11-06T15:05:41.992Z,13.10
2022-11-06T15:08:11.038Z,13.10
2022-11-06T15:10:51.504Z,13.10
2022-11-06T15:13:31.641Z,12.90
2022-11-06T15:16:13.043Z,12.90
2022-11-06T15:18:45.875Z,12.90
2022-11-06T15:21:23.104Z,12.90
2022-11-06T15:24:00.331Z,12.80
2022-11-06T15:26:33.857Z,12.80
2022-11-06T15:29:14.654Z,12.80
2022-11-06T15:31:45.983Z,12.80
2022-11-06T15:34:21.171Z,12.80
2022-11-06T15:36:56.238Z,12.70
2022-11-06T15:39:39.109Z,12.70
2022-11-06T15:42:09.998Z,12.70
2022-11-06T15:44:42.375Z,12.70
2022-11-06T15:47:21.927Z,12.60
2022-11-06T15:49:50.313Z,12.60
2022-11-06T15:52:20.036Z,12.60
2022-11-06T15:54:49.169Z,12.60
2022-11-06T15:57:20.548Z,12.60
2022-11-06T15:59:48.756Z,12.60
2022-11-06T16:02:19.597Z,12.60
2022-11-06T16:04:49.062Z,12.50
2022-11-06T16:07:20.709Z,12.40
2022-11-06T16:09:50.366Z,12.40
2022-11-06T16:12:19.758Z,12.50
2022-11-06T16:14:47.998Z,12.50
2022-11-06T16:17:23.804Z,12.50
2022-11-06T16:19:54.846Z,12.40
2022-11-06T16:22:31.607Z,12.40
2022-11-06T16:25:02.793Z,12.40
2022-11-06T16:27:41.966Z,12.40
2022-11-06T16:30:25.117Z,12.40
2022-11-06T16:32:54.639Z,12.40
2022-11-06T16:35:33.412Z,12.30
2022-11-06T16:38:46.097Z,12.30
2022-11-06T16:41:31.962Z,12.30
2022-11-06T16:44:22.644Z,12.30
2022-11-06T16:47:14.998Z,12.20
2022-11-06T16:49:47.639Z,12.10
2022-11-06T16:52:24.242Z,12.10
2022-11-06T16:54:56.445Z,12.10
2022-11-06T16:57:27.857Z,12.10
2022-11-06T17:00:03.174Z,12.10
2022-11-06T17:02:33.956Z,12.10
2022-11-06T17:05:16.968Z,12.00
2022-11-06T17:07:46.956Z,12.00
2022-11-06T17:10:41.407Z,12.00
2022-11-06T17:13:15.091Z,12.00
2022-11-06T17:15:44.797Z,12.00
2022-11-06T17:18:17.823Z,12.00
2022-11-06T17:20:49.686Z,11.90
2022-11-06T17:23:18.081Z,11.90
2022-11-06T17:25:51.021Z,11.90
2022-11-06T17:28:19.576Z,11.90
2022-11-06T17:30:48.298Z,11.80
2022-11-06T17:33:17.017Z,11.90
2022-11-06T17:35:45.235Z,11.90
2022-11-06T17:38:14.920Z,11.90
2022-11-06T17:40:44.321Z,11.80
2022-11-06T17:43:14.322Z,11.80
2022-11-06T17:45:48.127Z,11.80
2022-11-06T17:48:16.512Z,11.80
2022-11-06T17:51:01.858Z,11.80
2022-11-06T17:53:30.187Z,11.80
2022-11-06T17:55:58.380Z,11.80
2022-11-06T17:58:30.638Z,11.70
2022-11-06T18:01:06.854Z,11.70
2022-11-06T18:03:36.873Z,11.70
2022-11-06T18:06:05.304Z,11.80
2022-11-06T18:08:33.731Z,11.70
2022-11-06T18:11:01.906Z,11.80
2022-11-06T18:13:32.429Z,11.80
2022-11-06T18:16:00.809Z,11.70
2022-11-06T18:18:29.819Z,11.70
2022-11-06T18:20:57.846Z,11.70
2022-11-06T18:23:25.848Z,11.70
2022-11-06T18:25:58.292Z,11.70
2022-11-06T18:28:26.780Z,11.70
2022-11-06T18:30:56.336Z,11.80
2022-11-06T18:33:25.732Z,11.80
2022-11-06T18:35:54.056Z,11.80
2022-11-06T18:38:22.355Z,11.80
2022-11-06T18:40:51.884Z,11.80
2022-11-06T18:43:20.035Z,11.80
2022-11-06T18:45:48.084Z,11.80
2022-11-06T18:48:21.274Z,11.80
2022-11-06T18:50:50.182Z,11.80
2022-11-06T18:53:18.204Z,11.80
2022-11-06T18:55:47.040Z,11.90
2022-11-06T18:58:15.506Z,11.80
2022-11-06T19:00:43.807Z,11.70
2022-11-06T19:03:11.820Z,11.60
2022-11-06T19:05:47.315Z,11.50
2022-11-06T19:08:15.500Z,11.50
2022-11-06T19:10:43.760Z,11.40
2022-11-06T19:13:12.815Z,11.20
2022-11-06T19:15:40.998Z,11.20
2022-11-06T19:18:09.078Z,11.10
2022-11-06T19:20:41.312Z,11.10
2022-11-06T19:23:09.771Z,11.00
2022-11-06T19:25:41.175Z,10.80
2022-11-06T19:28:09.755Z,10.70
2022-11-06T19:30:37.993Z,10.60
2022-11-06T19:33:06.645Z,10.60
2022-11-06T19:35:34.908Z,10.50
2022-11-06T19:38:04.252Z,10.40
2022-11-06T19:40:32.860Z,10.30
2022-11-06T19:43:03.758Z,10.20
2022-11-06T19:45:31.767Z,10.20
2022-11-06T19:48:00.974Z,10.20
2022-11-06T19:50:58.120Z,10.10
2022-11-06T19:53:23.937Z,10.00
2022-11-06T19:55:52.256Z,9.90
2022-11-06T19:58:21.846Z,9.90
2022-11-06T20:00:50.333Z,9.90
2022-11-06T20:03:18.807Z,9.90
2022-11-06T20:05:46.745Z,9.90
2022-11-06T20:08:15.296Z,9.90
2022-11-06T20:10:44.782Z,9.90
2022-11-06T20:13:13.003Z,9.90
2022-11-06T20:15:41.221Z,9.90
2022-11-06T20:18:09.819Z,9.80
2022-11-06T20:20:37.972Z,9.80
2022-11-06T20:23:06.287Z,9.80
2022-11-06T20:25:34.249Z,9.80
2022-11-06T20:28:03.548Z,9.80
2022-11-06T20:30:32.140Z,9.80
2022-11-06T20:33:00.085Z,9.80
2022-11-06T20:35:28.067Z,9.70
2022-11-06T20:37:56.468Z,9.70
2022-11-06T20:40:24.497Z,9.80
2022-11-06T20:42:52.772Z,9.70
2022-11-06T20:45:22.171Z,9.60
2022-11-06T20:47:50.158Z,9.60
2022-11-06T20:50:18.274Z,9.60
2022-11-06T20:52:47.493Z,9.50
2022-11-06T20:55:15.428Z,9.50
2022-11-06T20:57:43.387Z,9.50
2022-11-06T21:00:13.212Z,9.50
2022-11-06T21:02:42.808Z,9.60
2022-11-06T21:05:10.905Z,9.60
2022-11-06T21:07:38.984Z,9.60
2022-11-06T21:10:07.449Z,9.60
2022-11-06T21:12:35.412Z,9.60
2022-11-06T21:15:03.487Z,9.60
2022-11-06T21:17:31.423Z,9.60
2022-11-06T21:20:00.733Z,9.70
2022-11-06T21:22:28.806Z,9.70
2022-11-06T21:24:56.761Z,9.70
2022-11-06T21:27:25.160Z,9.70
2022-11-06T21:29:55.934Z,9.70
2022-11-06T21:32:23.917Z,9.70
2022-11-06T21:34:51.869Z,9.70
2022-11-06T21:37:32.810Z,9.80
2022-11-06T21:40:01.186Z,9.70
2022-11-06T21:42:29.181Z,9.80
2022-11-06T21:44:57.528Z,9.80
2022-11-06T21:47:25.802Z,9.80
2022-11-06T21:49:54.855Z,9.80
2022-11-06T21:52:41.500Z,9.90
2022-11-06T21:55:28.477Z,9.90
2022-11-06T21:57:56.536Z,9.90
2022-11-06T22:00:24.843Z,9.90
2022-11-06T22:02:52.812Z,10.00
2022-11-06T22:05:21.013Z,10.00
2022-11-06T22:07:50.286Z,10.00
2022-11-06T22:10:18.309Z,10.10
2022-11-06T22:12:46.321Z,10.00
2022-11-06T22:15:14.313Z,10.10
2022-11-06T22:17:42.390Z,10.10
2022-11-06T22:20:11.875Z,10.20
2022-11-06T22:22:40.135Z,10.20
2022-11-06T22:25:10.276Z,10.20
2022-11-06T22:27:41.060Z,10.20
2022-11-06T22:30:10.526Z,10.20
2022-11-06T22:32:38.637Z,10.30
2022-11-06T22:35:06.928Z,10.40
2022-11-06T22:37:34.909Z,10.40
2022-11-06T22:40:03.257Z,10.40
2022-11-06T22:42:32.630Z,10.50
2022-11-06T22:45:00.679Z,10.50
2022-11-06T22:47:28.897Z,10.50
2022-11-06T22:49:56.856Z,10.50
2022-11-06T22:52:24.797Z,10.50
2022-11-06T22:54:52.866Z,10.60
2022-11-06T22:57:20.854Z,10.60
2022-11-06T22:59:50.217Z,10.60
2022-11-06T23:02:18.336Z,10.60
2022-11-06T23:04:46.662Z,10.60
2022-11-06T23:07:14.640Z,10.70
2022-11-06T23:09:42.745Z,10.70
2022-11-06T23:12:10.699Z,10.70
2022-11-06T23:14:38.728Z,10.70
2022-11-06T23:17:08.132Z,10.70
2022-11-06T23:19:36.084Z,10.70
2022-11-06T23:22:21.637Z,10.70
2022-11-06T23:24:49.592Z,10.70
2022-11-06T23:27:18.317Z,10.80
2022-11-06T23:29:46.637Z,10.80
2022-11-06T23:32:16.035Z,10.80
2022-11-06T23:34:43.990Z,10.80
2022-11-06T23:37:12.284Z,10.80
2022-11-06T23:39:40.230Z,10.80
2022-11-06T23:42:08.446Z,10.80
2022-11-06T23:44:53.819Z,10.90
2022-11-06T23:47:23.130Z,10.90
2022-11-06T23:49:51.083Z,10.90
2022-11-06T23:52:19.399Z,10.90
2022-11-06T23:54:47.352Z,10.90
2022-11-06T23:57:16.093Z,10.90
2022-11-06T23:59:44.332Z,11.00
